createdAt,value
2023-01-26T00:00:16.827Z,-0.69
2023-01-26T00:02:21.768Z,-0.68
2023-01-26T00:04:27.328Z,-0.77
2023-01-26T00:06:32.794Z,-0.76
2023-01-26T00:08:39.800Z,-0.78
2023-01-26T00:10:50.345Z,-0.75
2023-01-26T00:12:55.643Z,-0.72
2023-01-26T00:15:01.307Z,-0.70
2023-01-26T00:17:06.173Z,-0.66
2023-01-26T00:19:11.990Z,-0.64
2023-01-26T00:21:20.384Z,-0.69
2023-01-26T00:23:25.259Z,-0.78
2023-01-26T00:25:30.636Z,-0.82
2023-01-26T00:27:38.736Z,-0.82
2023-01-26T00:29:43.976Z,-0.63
2023-01-26T00:31:48.858Z,-0.72
2023-01-26T00:33:54.288Z,-0.72
2023-01-26T00:35:59.297Z,-0.74
2023-01-26T00:38:04.996Z,-0.81
2023-01-26T00:40:13.096Z,-0.78
2023-01-26T00:42:16.019Z,-0.75
2023-01-26T00:44:24.529Z,-0.67
2023-01-26T00:46:30.141Z,-0.68
2023-01-26T00:48:35.444Z,-0.77
2023-01-26T00:50:40.419Z,-0.75
2023-01-26T00:52:47.703Z,-0.76
2023-01-26T00:54:52.588Z,-0.71
2023-01-26T00:56:58.180Z,-0.77
2023-01-26T00:59:03.132Z,-0.82
2023-01-26T01:01:11.729Z,-0.80
2023-01-26T01:03:20.304Z,-0.81
2023-01-26T01:11:55.582Z,-0.75
2023-01-26T01:14:00.624Z,-0.80
2023-01-26T01:16:12.071Z,-0.78
2023-01-26T01:18:17.081Z,-0.79
2023-01-26T01:20:22.835Z,-0.80
2023-01-26T01:22:27.888Z,-0.79
2023-01-26T01:24:34.754Z,-0.75
2023-01-26T01:26:39.746Z,-0.60
2023-01-26T01:28:45.974Z,-0.78
2023-01-26T01:30:50.961Z,-0.66
2023-01-26T01:32:58.474Z,-0.65
2023-01-26T01:35:03.432Z,-0.66
2023-01-26T01:37:08.396Z,-0.71
2023-01-26T01:39:13.867Z,-0.71
2023-01-26T01:41:22.734Z,-0.68
2023-01-26T01:43:29.449Z,-0.80
2023-01-26T01:45:46.879Z,-0.83
2023-01-26T01:47:51.833Z,-0.84
2023-01-26T01:49:59.535Z,-0.81
2023-01-26T01:52:09.802Z,-0.82
2023-01-26T01:54:18.413Z,-0.84
2023-01-26T01:56:30.015Z,-0.84
2023-01-26T01:58:38.422Z,-0.94
2023-01-26T02:00:43.837Z,-0.85
2023-01-26T02:03:11.057Z,-0.74
2023-01-26T02:05:30.600Z,-0.71
2023-01-26T02:07:36.534Z,-0.81
2023-01-26T02:09:57.411Z,-0.92
2023-01-26T02:12:04.882Z,-0.94
2023-01-26T02:14:12.799Z,-0.84
2023-01-26T02:16:18.150Z,-0.95
2023-01-26T02:18:23.607Z,-1.02
2023-01-26T02:20:42.420Z,-1.03
2023-01-26T02:22:58.674Z,-1.03
2023-01-26T02:25:13.786Z,-1.20
2023-01-26T02:27:22.409Z,-1.13
2023-01-26T02:29:27.833Z,-1.10
2023-01-26T02:31:34.430Z,-1.16
2023-01-26T02:33:39.750Z,-1.15
2023-01-26T02:35:45.026Z,-1.17
2023-01-26T02:37:51.087Z,-1.13
2023-01-26T02:40:03.042Z,-1.17
2023-01-26T02:42:22.039Z,-1.25
2023-01-26T02:44:32.151Z,-1.27
2023-01-26T02:46:37.423Z,-1.24
2023-01-26T02:48:55.195Z,-1.25
2023-01-26T02:51:00.900Z,-1.21
2023-01-26T02:53:06.845Z,-1.19
2023-01-26T02:55:22.850Z,-1.14
2023-01-26T02:57:28.282Z,-1.26
2023-01-26T02:59:35.866Z,-1.26
2023-01-26T03:01:41.263Z,-1.30
2023-01-26T03:03:46.292Z,-1.28
2023-01-26T03:05:52.723Z,-1.28
2023-01-26T03:07:59.148Z,-1.25
2023-01-26T03:10:13.298Z,-1.14
2023-01-26T03:12:18.457Z,-1.16
2023-01-26T03:14:25.876Z,-1.13
2023-01-26T03:16:33.483Z,-1.23
2023-01-26T03:18:52.123Z,-1.26
2023-01-26T03:21:14.405Z,-1.22
2023-01-26T03:23:32.850Z,-1.13
2023-01-26T03:26:06.837Z,-1.19
2023-01-26T03:28:13.878Z,-1.16
2023-01-26T03:30:22.428Z,-1.26
2023-01-26T03:32:31.134Z,-1.32
2023-01-26T03:34:37.779Z,-1.30
2023-01-26T03:36:43.456Z,-1.16
2023-01-26T03:38:52.255Z,-1.23
2023-01-26T03:41:13.852Z,-1.21
2023-01-26T03:43:31.714Z,-1.28
2023-01-26T03:45:49.908Z,-1.32
2023-01-26T03:48:20.218Z,-1.27
2023-01-26T03:50:38.152Z,-1.27
2023-01-26T03:52:56.025Z,-1.36
2023-01-26T03:55:14.054Z,-1.33
2023-01-26T03:57:19.260Z,-1.36
2023-01-26T03:59:38.273Z,-1.43
2023-01-26T04:02:02.071Z,-1.42
2023-01-26T04:04:25.996Z,-1.42
2023-01-26T04:06:43.564Z,-1.47
2023-01-26T04:08:50.590Z,-1.51
2023-01-26T04:10:57.583Z,-1.54
2023-01-26T04:13:16.718Z,-1.46
2023-01-26T04:15:39.698Z,-1.43
2023-01-26T04:17:57.246Z,-1.44
2023-01-26T04:20:17.774Z,-1.44
2023-01-26T04:22:22.876Z,-1.54
2023-01-26T04:24:28.151Z,-1.60
2023-01-26T04:26:39.842Z,-1.51
2023-01-26T04:28:49.133Z,-1.58
2023-01-26T04:30:54.721Z,-1.51
2023-01-26T04:33:00.365Z,-1.43
2023-01-26T04:35:10.243Z,-1.44
2023-01-26T04:37:16.157Z,-1.52
2023-01-26T04:39:24.844Z,-1.53
2023-01-26T04:41:34.547Z,-1.59
2023-01-26T04:43:43.861Z,-1.65
2023-01-26T04:45:59.787Z,-1.69
2023-01-26T04:48:05.760Z,-1.71
2023-01-26T04:50:14.322Z,-1.66
2023-01-26T04:52:20.157Z,-1.68
2023-01-26T04:54:25.874Z,-1.64
2023-01-26T04:56:34.645Z,-1.70
2023-01-26T04:58:40.485Z,-1.56
2023-01-26T05:00:45.623Z,-1.50
2023-01-26T05:02:51.198Z,-1.62
2023-01-26T05:04:56.368Z,-1.70
2023-01-26T05:07:05.259Z,-1.67
2023-01-26T05:09:11.982Z,-1.67
2023-01-26T05:11:18.976Z,-1.72
2023-01-26T05:13:35.517Z,-1.79
2023-01-26T05:15:54.244Z,-1.82
2023-01-26T05:18:14.553Z,-1.78
2023-01-26T05:20:28.355Z,-1.77
2023-01-26T05:22:50.036Z,-1.73
2023-01-26T05:25:08.483Z,-1.71
2023-01-26T05:27:35.985Z,-1.68
2023-01-26T05:29:40.983Z,-1.60
2023-01-26T05:31:46.882Z,-1.51
2023-01-26T05:33:51.984Z,-1.65
2023-01-26T05:36:01.014Z,-1.69
2023-01-26T05:38:09.955Z,-1.80
2023-01-26T05:40:16.795Z,-1.73
2023-01-26T05:42:22.690Z,-1.71
2023-01-26T05:44:45.910Z,-1.60
2023-01-26T05:46:53.014Z,-1.70
2023-01-26T05:48:57.911Z,-1.73
2023-01-26T05:51:04.023Z,-1.81
2023-01-26T05:53:13.485Z,-1.79
2023-01-26T05:55:19.073Z,-1.64
2023-01-26T05:57:23.976Z,-1.66
2023-01-26T05:59:34.832Z,-1.72
2023-01-26T06:01:42.684Z,-1.72
2023-01-26T06:03:49.132Z,-1.73
2023-01-26T06:05:57.990Z,-1.65
2023-01-26T06:08:28.311Z,-1.73
2023-01-26T06:11:03.269Z,-1.67
2023-01-26T06:13:22.617Z,-1.81
2023-01-26T06:15:40.183Z,-1.75
2023-01-26T06:17:45.902Z,-1.79
2023-01-26T06:19:53.215Z,-1.72
2023-01-26T06:21:59.061Z,-1.70
2023-01-26T06:24:07.361Z,-1.58
2023-01-26T06:26:13.464Z,-1.64
2023-01-26T06:28:19.418Z,-1.74
2023-01-26T06:30:24.591Z,-1.77
2023-01-26T06:32:30.952Z,-1.71
2023-01-26T06:34:36.556Z,-1.56
2023-01-26T06:36:42.039Z,-1.65
2023-01-26T06:38:56.451Z,-1.60
2023-01-26T06:41:07.244Z,-1.65
2023-01-26T06:43:12.255Z,-1.68
2023-01-26T06:45:17.440Z,-1.64
2023-01-26T06:47:22.394Z,-1.63
2023-01-26T06:49:27.829Z,-1.65
2023-01-26T06:51:48.800Z,-1.66
2023-01-26T06:53:57.597Z,-1.66
2023-01-26T06:56:16.367Z,-1.55
2023-01-26T06:58:41.510Z,-1.56
2023-01-26T07:01:05.811Z,-1.53
2023-01-26T07:03:14.196Z,-1.51
2023-01-26T07:05:19.707Z,-1.53
2023-01-26T07:07:24.595Z,-1.56
2023-01-26T07:09:30.109Z,-1.49
2023-01-26T07:11:37.566Z,-1.49
2023-01-26T07:13:43.001Z,-1.52
2023-01-26T07:15:48.221Z,-1.57
2023-01-26T07:17:53.089Z,-1.59
2023-01-26T07:19:57.973Z,-1.58
2023-01-26T07:22:03.291Z,-1.54
2023-01-26T07:24:09.720Z,-1.61
2023-01-26T07:26:14.874Z,-1.61
2023-01-26T07:28:22.524Z,-1.61
2023-01-26T07:30:27.721Z,-1.61
2023-01-26T07:32:32.581Z,-1.63
2023-01-26T07:34:37.766Z,-1.60
2023-01-26T07:36:43.904Z,-1.65
2023-01-26T07:38:48.787Z,-1.59
2023-01-26T07:40:54.460Z,-1.64
2023-01-26T07:43:00.515Z,-1.68
2023-01-26T07:45:27.369Z,-1.66
2023-01-26T07:47:32.273Z,-1.66
2023-01-26T07:49:37.237Z,-1.60
2023-01-26T07:51:42.707Z,-1.47
2023-01-26T07:53:49.980Z,-1.51
2023-01-26T07:55:55.069Z,-1.53
2023-01-26T07:58:00.567Z,-1.52
2023-01-26T08:00:06.878Z,-1.40
2023-01-26T08:02:19.297Z,-1.47
2023-01-26T08:04:24.268Z,-1.57
2023-01-26T08:06:29.166Z,-1.45
2023-01-26T08:08:35.029Z,-1.49
2023-01-26T08:10:40.406Z,-1.33
2023-01-26T08:12:45.299Z,-1.43
2023-01-26T08:14:50.516Z,-1.50
2023-01-26T08:16:56.169Z,-1.30
2023-01-26T08:19:03.950Z,-1.40
2023-01-26T08:21:09.110Z,-1.44
2023-01-26T08:23:14.001Z,-1.50
2023-01-26T08:25:19.138Z,-1.57
2023-01-26T08:27:24.500Z,-1.45
2023-01-26T08:29:29.416Z,-1.43
2023-01-26T08:31:35.055Z,-1.47
2023-01-26T08:33:41.233Z,-1.41
2023-01-26T08:35:48.731Z,-1.43
2023-01-26T08:37:53.805Z,-1.46
2023-01-26T08:39:58.827Z,-1.56
2023-01-26T08:42:03.790Z,-1.22
2023-01-26T08:44:08.992Z,-1.42
2023-01-26T08:46:14.525Z,-1.38
2023-01-26T08:48:19.820Z,-1.46
2023-01-26T08:50:25.076Z,-1.52
2023-01-26T08:52:32.733Z,-1.45
2023-01-26T08:54:37.608Z,-1.38
2023-01-26T08:56:42.492Z,-1.44
2023-01-26T08:58:47.554Z,-1.55
2023-01-26T09:00:53.938Z,-1.39
2023-01-26T09:03:03.238Z,-1.31
2023-01-26T09:05:11.091Z,-1.34
2023-01-26T09:07:16.010Z,-1.27
2023-01-26T09:09:23.503Z,-1.34
2023-01-26T09:11:28.962Z,-1.22
2023-01-26T09:13:33.867Z,-1.47
2023-01-26T09:15:40.773Z,-1.28
2023-01-26T09:17:45.715Z,-1.37
2023-01-26T09:19:50.606Z,-1.50
2023-01-26T09:21:56.298Z,-1.49
2023-01-26T09:24:01.433Z,-1.38
2023-01-26T09:26:09.141Z,-1.27
2023-01-26T09:28:14.042Z,-1.22
2023-01-26T09:30:20.436Z,-1.26
2023-01-26T09:32:25.756Z,-1.20
2023-01-26T09:34:31.106Z,-1.24
2023-01-26T09:36:41.228Z,-1.18
2023-01-26T09:38:47.196Z,-0.99
2023-01-26T09:41:03.302Z,-1.01
2023-01-26T09:43:27.622Z,-1.03
2023-01-26T09:45:38.976Z,-0.90
2023-01-26T09:48:05.167Z,-0.86
2023-01-26T09:50:16.022Z,-0.82
2023-01-26T09:52:29.265Z,-0.81
2023-01-26T09:54:39.523Z,-0.90
2023-01-26T09:56:44.634Z,-0.83
2023-01-26T09:58:57.788Z,-0.92
2023-01-26T10:01:05.471Z,-0.85
2023-01-26T10:03:23.467Z,-0.85
2023-01-26T10:05:39.781Z,-0.86
2023-01-26T10:07:47.263Z,-0.83
2023-01-26T10:09:56.962Z,-0.94
2023-01-26T10:12:05.080Z,-0.93
2023-01-26T10:14:18.760Z,-0.92
2023-01-26T10:16:25.326Z,-0.80
2023-01-26T10:18:35.675Z,-0.80
2023-01-26T10:20:47.846Z,-0.67
2023-01-26T10:22:57.908Z,-0.74
2023-01-26T10:25:03.829Z,-0.67
2023-01-26T10:27:14.875Z,-0.95
2023-01-26T10:29:22.423Z,-0.78
2023-01-26T10:31:32.440Z,-0.78
2023-01-26T10:33:39.982Z,-0.78
2023-01-26T10:35:45.219Z,-0.85
2023-01-26T10:37:52.294Z,-0.90
2023-01-26T10:40:05.212Z,-0.84
2023-01-26T10:42:21.653Z,-1.05
2023-01-26T10:44:35.855Z,-1.02
2023-01-26T10:46:43.863Z,-1.17
2023-01-26T10:48:55.680Z,-1.11
2023-01-26T10:51:19.084Z,-1.08
2023-01-26T10:53:28.388Z,-1.00
2023-01-26T10:55:36.756Z,-0.99
2023-01-26T10:57:44.324Z,-0.93
2023-01-26T10:59:59.157Z,-0.67
2023-01-26T11:02:22.687Z,-0.77
2023-01-26T11:04:31.761Z,-0.92
2023-01-26T11:06:37.087Z,-0.83
2023-01-26T11:08:42.523Z,-0.78
2023-01-26T11:10:57.315Z,-0.59
2023-01-26T11:13:20.115Z,-0.67
2023-01-26T11:15:41.909Z,-0.81
2023-01-26T11:17:58.680Z,-0.66
2023-01-26T11:20:26.716Z,-0.92
2023-01-26T11:22:38.718Z,-0.79
2023-01-26T11:24:51.793Z,-0.83
2023-01-26T11:27:23.469Z,-0.97
2023-01-26T11:29:55.576Z,-0.96
2023-01-26T11:32:13.162Z,-0.85
2023-01-26T11:34:32.097Z,-0.96
2023-01-26T11:36:51.424Z,-1.04
2023-01-26T11:39:07.981Z,-0.96
2023-01-26T11:41:39.773Z,-0.84
2023-01-26T11:46:34.696Z,-0.84
2023-01-26T11:48:59.559Z,-0.79
2023-01-26T11:51:14.926Z,-0.94
2023-01-26T11:53:58.330Z,-0.92
2023-01-26T11:56:26.962Z,-0.95
2023-01-26T11:58:38.575Z,-1.00
2023-01-26T12:00:46.885Z,-0.96
2023-01-26T12:02:59.345Z,-0.80
2023-01-26T12:05:16.904Z,-0.79
2023-01-26T12:07:29.927Z,-0.72
2023-01-26T12:09:43.665Z,-0.81
2023-01-26T12:11:59.828Z,-0.84
2023-01-26T12:14:24.750Z,-0.77
2023-01-26T12:16:43.280Z,-0.78
2023-01-26T12:19:10.615Z,-0.72
2023-01-26T12:21:22.481Z,-0.63
2023-01-26T12:23:40.904Z,-0.52
2023-01-26T12:25:54.523Z,-0.51
2023-01-26T12:28:09.694Z,-0.43
2023-01-26T12:30:33.380Z,-0.19
2023-01-26T12:32:39.300Z,-0.18
2023-01-26T12:34:44.895Z,-0.12
2023-01-26T12:37:06.996Z,-0.10
2023-01-26T12:39:16.624Z,-0.10
2023-01-26T12:41:35.256Z,-0.07
2023-01-26T12:44:04.737Z,-0.19
2023-01-26T12:46:11.805Z,-0.23
2023-01-26T12:48:23.695Z,-0.18
2023-01-26T12:50:36.392Z,-0.36
2023-01-26T12:52:51.587Z,-0.58
2023-01-26T12:55:05.691Z,-0.64
2023-01-26T12:57:17.715Z,-0.58
2023-01-26T12:59:47.897Z,-0.68
2023-01-26T13:01:55.477Z,-0.81
2023-01-26T13:04:06.168Z,-0.69
2023-01-26T13:06:27.948Z,-0.61
2023-01-26T13:08:55.345Z,-0.53
2023-01-26T13:11:04.985Z,-0.49
2023-01-26T13:13:34.061Z,-0.25
2023-01-26T13:15:40.748Z,-0.22
2023-01-26T13:17:59.203Z,-0.41
2023-01-26T13:20:53.827Z,-0.39
2023-01-26T13:23:00.090Z,-0.32
2023-01-26T13:25:22.005Z,-0.09
2023-01-26T13:27:35.046Z,-0.06
2023-01-26T13:29:57.019Z,-0.01
2023-01-26T13:32:25.878Z,0.06
2023-01-26T13:34:38.927Z,0.12
2023-01-26T13:36:45.509Z,-0.11
2023-01-26T13:39:01.535Z,0.02
2023-01-26T13:41:12.907Z,-0.14
2023-01-26T13:43:27.794Z,-0.17
2023-01-26T13:45:42.053Z,-0.14
2023-01-26T13:47:52.265Z,-0.18
2023-01-26T13:49:58.039Z,-0.18
2023-01-26T13:52:04.132Z,-0.23
2023-01-26T13:54:15.291Z,-0.14
2023-01-26T13:56:33.925Z,-0.19
2023-01-26T13:58:39.732Z,-0.20
2023-01-26T14:00:45.577Z,-0.39
2023-01-26T14:02:53.353Z,-0.50
2023-01-26T14:05:02.175Z,-0.43
2023-01-26T14:07:12.253Z,-0.68
2023-01-26T14:09:18.951Z,-0.68
2023-01-26T14:11:30.341Z,-0.58
2023-01-26T14:13:40.547Z,-0.49
2023-01-26T14:15:46.296Z,-0.56
2023-01-26T14:17:59.453Z,-0.49
2023-01-26T14:20:22.299Z,-0.54
2023-01-26T14:22:27.707Z,-0.85
2023-01-26T14:24:39.873Z,-0.83
2023-01-26T14:26:49.020Z,-0.67
2023-01-26T14:28:55.551Z,-0.68
2023-01-26T14:31:08.536Z,-0.72
2023-01-26T14:33:16.610Z,-0.77
2023-01-26T14:35:25.890Z,-0.68
2023-01-26T14:37:32.230Z,-0.61
2023-01-26T14:39:38.251Z,-0.82
2023-01-26T14:41:44.063Z,-0.86
2023-01-26T14:43:56.077Z,-0.90
2023-01-26T14:46:10.884Z,-0.88
2023-01-26T14:48:22.084Z,-0.98
2023-01-26T14:50:32.620Z,-0.96
2023-01-26T14:52:42.263Z,-1.09
2023-01-26T14:54:50.374Z,-1.21
2023-01-26T14:56:55.780Z,-1.15
2023-01-26T14:59:05.275Z,-1.01
2023-01-26T15:01:10.927Z,-1.14
2023-01-26T15:03:23.119Z,-1.11
2023-01-26T15:05:37.717Z,-1.12
2023-01-26T15:07:48.114Z,-1.12
2023-01-26T15:09:57.267Z,-1.08
2023-01-26T15:12:15.850Z,-1.11
2023-01-26T15:14:51.811Z,-1.07
2023-01-26T15:16:59.139Z,-1.04
2023-01-26T15:19:08.594Z,-1.00
2023-01-26T15:21:18.592Z,-1.14
2023-01-26T15:23:30.017Z,-1.12
2023-01-26T15:25:38.801Z,-1.06
2023-01-26T15:27:57.469Z,-1.09
2023-01-26T15:30:08.681Z,-1.07
2023-01-26T15:32:32.678Z,-1.08
2023-01-26T15:34:42.679Z,-1.06
2023-01-26T15:36:53.637Z,-1.10
2023-01-26T15:39:04.159Z,-1.15
2023-01-26T15:41:13.474Z,-1.13
2023-01-26T15:43:22.501Z,-1.12
2023-01-26T15:45:33.890Z,-1.13
2023-01-26T15:47:40.446Z,-1.13
2023-01-26T15:49:47.092Z,-1.15
2023-01-26T15:51:54.163Z,-1.15
2023-01-26T15:54:01.215Z,-1.16
2023-01-26T15:56:06.601Z,-1.10
2023-01-26T15:58:12.447Z,-1.07
2023-01-26T16:00:20.771Z,-1.11
2023-01-26T16:02:31.593Z,-1.13
2023-01-26T16:04:37.945Z,-1.13
2023-01-26T16:06:43.897Z,-1.22
2023-01-26T16:08:49.660Z,-1.18
2023-01-26T16:10:56.899Z,-1.28
2023-01-26T16:13:02.235Z,-1.25
2023-01-26T16:15:42.169Z,-1.21
2023-01-26T16:17:50.506Z,-1.14
2023-01-26T16:19:56.287Z,-1.09
2023-01-26T16:22:01.657Z,-1.07
2023-01-26T16:24:08.392Z,-1.12
2023-01-26T16:26:15.301Z,-1.05
2023-01-26T16:28:22.160Z,-1.08
2023-01-26T16:30:29.527Z,-1.08
2023-01-26T16:32:35.634Z,-1.03
2023-01-26T16:34:43.624Z,-1.09
2023-01-26T16:36:50.348Z,-1.16
2023-01-26T16:38:57.090Z,-1.15
2023-01-26T16:41:02.725Z,-1.14
2023-01-26T16:43:08.312Z,-1.09
2023-01-26T16:45:19.533Z,-1.13
2023-01-26T16:47:25.323Z,-1.13
2023-01-26T16:49:31.505Z,-1.09
2023-01-26T16:51:42.833Z,-1.14
2023-01-26T16:53:49.166Z,-1.13
2023-01-26T16:55:54.880Z,-1.11
2023-01-26T16:58:00.894Z,-1.13
2023-01-26T17:00:07.730Z,-1.14
2023-01-26T17:02:28.381Z,-1.18
2023-01-26T17:04:34.568Z,-1.17
2023-01-26T17:06:43.525Z,-1.18
2023-01-26T17:08:49.989Z,-1.15
2023-01-26T17:11:02.308Z,-1.14
2023-01-26T17:13:08.497Z,-1.15
2023-01-26T17:15:18.750Z,-1.10
2023-01-26T17:17:26.184Z,-1.08
2023-01-26T17:19:31.680Z,-1.09
2023-01-26T17:21:37.469Z,-1.08
2023-01-26T17:23:46.989Z,-1.09
2023-01-26T17:25:52.888Z,-1.07
2023-01-26T17:27:58.452Z,-1.08
2023-01-26T17:30:04.946Z,-1.07
2023-01-26T17:32:10.596Z,-1.04
2023-01-26T17:34:16.971Z,-1.05
2023-01-26T17:36:23.399Z,-1.03
2023-01-26T17:38:28.790Z,-0.99
2023-01-26T17:40:36.867Z,-0.95
2023-01-26T17:42:42.031Z,-0.94
2023-01-26T17:44:47.744Z,-0.95
2023-01-26T17:46:53.751Z,-0.94
2023-01-26T17:48:59.380Z,-0.94
2023-01-26T17:51:09.352Z,-0.94
2023-01-26T17:53:14.488Z,-0.93
2023-01-26T17:55:20.530Z,-0.90
2023-01-26T17:57:29.735Z,-0.91
2023-01-26T17:59:35.595Z,-0.90
2023-01-26T18:01:41.683Z,-0.90
2023-01-26T18:03:47.346Z,-0.94
2023-01-26T18:05:55.431Z,-0.96
2023-01-26T18:08:01.585Z,-1.00
2023-01-26T18:10:08.038Z,-0.93
2023-01-26T18:12:13.907Z,-0.85
2023-01-26T18:14:21.524Z,-0.74
2023-01-26T18:16:26.893Z,-0.74
2023-01-26T18:18:33.281Z,-0.79
2023-01-26T18:20:38.284Z,-0.86
2023-01-26T18:22:43.347Z,-0.92
2023-01-26T18:24:50.539Z,-0.97
2023-01-26T18:26:55.863Z,-0.95
2023-01-26T18:29:01.595Z,-0.89
2023-01-26T18:31:14.536Z,-0.91
2023-01-26T18:33:20.232Z,-0.91
2023-01-26T18:35:25.587Z,-0.90
2023-01-26T18:37:33.566Z,-0.92
2023-01-26T18:39:39.640Z,-0.83
2023-01-26T18:41:45.942Z,-0.84
2023-01-26T18:43:53.685Z,-0.86
2023-01-26T18:45:58.598Z,-0.89
2023-01-26T18:48:06.631Z,-0.89
2023-01-26T18:50:15.364Z,-0.90
2023-01-26T18:52:20.580Z,-0.79
2023-01-26T18:54:25.476Z,-0.83
2023-01-26T18:56:31.250Z,-0.82
2023-01-26T18:58:37.512Z,-0.78
2023-01-26T19:00:42.381Z,-0.83
2023-01-26T19:02:47.922Z,-0.79
2023-01-26T19:04:58.685Z,-0.79
2023-01-26T19:07:03.543Z,-0.77
2023-01-26T19:09:11.731Z,-0.80
2023-01-26T19:11:17.208Z,-0.77
2023-01-26T19:13:22.074Z,-0.80
2023-01-26T19:15:29.749Z,-0.82
2023-01-26T19:17:34.619Z,-0.79
2023-01-26T19:19:41.072Z,-0.85
2023-01-26T19:21:48.547Z,-0.82
2023-01-26T19:23:55.443Z,-0.79
2023-01-26T19:26:00.536Z,-0.81
2023-01-26T19:28:05.471Z,-0.80
2023-01-26T19:30:13.180Z,-0.74
2023-01-26T19:32:18.036Z,-0.77
2023-01-26T19:34:23.180Z,-0.78
2023-01-26T19:36:30.355Z,-0.78
2023-01-26T19:38:40.131Z,-0.78
2023-01-26T19:40:47.514Z,-0.79
2023-01-26T19:42:52.372Z,-0.79
2023-01-26T19:44:57.227Z,-0.77
2023-01-26T19:47:02.071Z,-0.76
2023-01-26T19:49:11.713Z,-0.75
2023-01-26T19:51:19.494Z,-0.72
2023-01-26T19:53:24.337Z,-0.71
2023-01-26T19:55:31.761Z,-0.68
2023-01-26T19:57:36.710Z,-0.73
2023-01-26T19:59:41.571Z,-0.69
2023-01-26T20:01:46.442Z,-0.64
2023-01-26T20:03:53.189Z,-0.65
2023-01-26T20:05:58.008Z,-0.66
2023-01-26T20:08:02.841Z,-0.65
2023-01-26T20:10:09.254Z,-0.63
2023-01-26T20:12:16.696Z,-0.64
2023-01-26T20:14:21.695Z,-0.64
2023-01-26T20:16:28.199Z,-0.65
2023-01-26T20:18:33.286Z,-0.64
2023-01-26T20:20:39.444Z,-0.64
2023-01-26T20:22:44.379Z,-0.65
2023-01-26T20:24:49.224Z,-0.64
2023-01-26T20:26:54.092Z,-0.62
2023-01-26T20:29:01.743Z,-0.62
2023-01-26T20:31:10.171Z,-0.62
2023-01-26T20:33:15.295Z,-0.65
2023-01-26T20:35:20.284Z,-0.67
2023-01-26T20:37:25.122Z,-0.64
2023-01-26T20:39:30.829Z,-0.59
2023-01-26T20:41:36.396Z,-0.58
2023-01-26T20:43:57.393Z,-0.57
2023-01-26T20:46:09.529Z,-0.59
2023-01-26T20:48:14.402Z,-0.55
2023-01-26T20:50:19.307Z,-0.57
2023-01-26T20:52:25.093Z,-0.62
2023-01-26T20:54:30.396Z,-0.60
2023-01-26T20:56:36.498Z,-0.60
2023-01-26T20:58:42.801Z,-0.58
2023-01-26T21:00:47.666Z,-0.59
2023-01-26T21:02:55.116Z,-0.59
2023-01-26T21:04:59.984Z,-0.56
2023-01-26T21:07:04.996Z,-0.54
2023-01-26T21:09:12.637Z,-0.53
2023-01-26T21:11:19.823Z,-0.51
2023-01-26T21:13:24.949Z,-0.48
2023-01-26T21:15:30.150Z,-0.52
2023-01-26T21:17:35.070Z,-0.51
2023-01-26T21:19:42.502Z,-0.49
2023-01-26T21:21:47.591Z,-0.50
2023-01-26T21:23:53.074Z,-0.50
2023-01-26T21:26:01.776Z,-0.48
2023-01-26T21:28:06.849Z,-0.46
2023-01-26T21:30:14.653Z,-0.47
2023-01-26T21:32:19.620Z,-0.47
2023-01-26T21:34:24.504Z,-0.46
2023-01-26T21:36:34.274Z,-0.44
2023-01-26T21:38:42.917Z,-0.43
2023-01-26T21:40:47.831Z,-0.39
2023-01-26T21:42:52.702Z,-0.38
2023-01-26T21:45:10.025Z,-0.40
2023-01-26T21:47:14.863Z,-0.41
2023-01-26T21:49:20.389Z,-0.43
2023-01-26T21:51:37.937Z,-0.37
2023-01-26T21:53:45.596Z,-0.40
2023-01-26T21:55:50.486Z,-0.39
2023-01-26T21:58:07.830Z,-0.39
2023-01-26T22:00:15.949Z,-0.35
2023-01-26T22:02:21.436Z,-0.37
2023-01-26T22:04:30.246Z,-0.35
2023-01-26T22:06:35.260Z,-0.34
2023-01-26T22:08:40.124Z,-0.34
2023-01-26T22:10:54.918Z,-0.35
2023-01-26T22:13:00.203Z,-0.37
2023-01-26T22:15:05.651Z,-0.32
2023-01-26T22:17:11.064Z,-0.34
2023-01-26T22:19:17.055Z,-0.32
2023-01-26T22:21:23.080Z,-0.33
2023-01-26T22:23:28.139Z,-0.35
2023-01-26T22:25:33.719Z,-0.36
2023-01-26T22:27:42.705Z,-0.38
2023-01-26T22:29:47.969Z,-0.35
2023-01-26T22:31:53.731Z,-0.34
2023-01-26T22:34:01.472Z,-0.30
2023-01-26T22:36:09.791Z,-0.31
2023-01-26T22:38:15.236Z,-0.29
2023-01-26T22:40:20.932Z,-0.27
2023-01-26T22:42:25.920Z,-0.29
2023-01-26T22:44:35.600Z,-0.29
2023-01-26T22:46:41.291Z,-0.29
2023-01-26T22:48:47.630Z,-0.29
2023-01-26T22:50:52.653Z,-0.26
2023-01-26T22:52:57.541Z,-0.26
2023-01-26T22:55:02.431Z,-0.23
2023-01-26T22:57:07.343Z,-0.22
2023-01-26T22:59:12.207Z,-0.21
2023-01-26T23:01:21.126Z,-0.23
2023-01-26T23:03:26.068Z,-0.23
2023-01-26T23:05:32.876Z,-0.22
2023-01-26T23:07:37.745Z,-0.24
2023-01-26T23:09:42.596Z,-0.22
2023-01-26T23:11:47.524Z,-0.23
2023-01-26T23:13:55.787Z,-0.24
2023-01-26T23:16:00.698Z,-0.22
2023-01-26T23:18:08.347Z,-0.23
2023-01-26T23:20:15.011Z,-0.23
2023-01-26T23:22:20.088Z,-0.24
2023-01-26T23:24:25.196Z,-0.22
2023-01-26T23:26:30.515Z,-0.21
2023-01-26T23:28:40.210Z,-0.23
2023-01-26T23:30:45.886Z,-0.23
2023-01-26T23:32:50.732Z,-0.20
2023-01-26T23:34:58.341Z,-0.23
2023-01-26T23:37:03.208Z,-0.21
2023-01-26T23:39:08.431Z,-0.20
2023-01-26T23:41:13.317Z,-0.20
2023-01-26T23:43:18.486Z,-0.17
2023-01-26T23:45:23.373Z,-0.18
2023-01-26T23:47:28.335Z,-0.20
2023-01-26T23:49:33.217Z,-0.19
2023-01-26T23:51:41.068Z,-0.18
2023-01-26T23:53:45.937Z,-0.18
2023-01-26T23:55:50.777Z,-0.16
2023-01-26T23:57:55.950Z,-0.18
